San Diego, California
Traffic Map
Current Weather Conditions
San Diego, California
Clear
Clear
67°
Feels Like: 67°
Wind Chill: 67° Ceiling: Unl
Heat Index: 67° Visibility: 10mi
Dew Point: 50° Wind: 3mph
Humidity: 54% Direction: 360° (N)
Pressure: 30.01in Gusts: 0mph
Raw Report DataKSAN 010651Z 36003KT 10SM CLR 19/10 A3001 RMK AO2 SLP163 T01940100
Traffic Incident Summary
Active as of:
Severity:
Category:
InformationThere was an issue retrieving the traffic information for this location. Please try a different location or try again shortly.
Advertisements
Track Severe Weather on mobile